Eugenio de Castro, Brazil
Current Conditions -  °F | °C
As of 9:00 AM on Saturday 25 Oct 2014 (Local Time) from SBSM Reporting Station
Haze Haze  
Wind Chill: 66°   Ceiling: 600
Heat Index: 66°   Visibility: 3mi
Dew Point: 64°   Wind: 7mph
Humidity: 94%   Direction: 120°ESE
Pressure: 29.94"   Gusts: NA
Location:  28.53°S, 54.15°W
Report Text: SBSM 251100Z 12006KT 5000 BR SCT004 BKN006 19/18 Q1014
Loading
Personal Weather Stations






























Interactive Weather Map
Tropical Storm Tracking
New forecast layout! Learn more

10-Day Weather Forecast

Advertisements
Track Severe Weather on mobile